sensor_id;sensor_type;location;lat;lon;timestamp;P1;P2;P0
55304;PMS7003;65692;51.378;19.824;2022-12-11T00:00:05;51.25;44.00;28.25
55304;PMS7003;65692;51.378;19.824;2022-12-11T00:02:32;64.50;44.00;31.00
55304;PMS7003;65692;51.378;19.824;2022-12-11T00:04:59;44.25;33.00;24.25
55304;PMS7003;65692;51.378;19.824;2022-12-11T00:07:25;61.75;44.50;32.00
55304;PMS7003;65692;51.378;19.824;2022-12-11T00:09:52;54.75;40.00;26.00
55304;PMS7003;65692;51.378;19.824;2022-12-11T00:12:18;47.50;37.50;25.00
55304;PMS7003;65692;51.378;19.824;2022-12-11T00:14:45;61.25;41.25;30.00
55304;PMS7003;65692;51.378;19.824;2022-12-11T00:17:12;46.75;42.50;30.25
55304;PMS7003;65692;51.378;19.824;2022-12-11T00:19:38;54.00;42.00;30.00
55304;PMS7003;65692;51.378;19.824;2022-12-11T00:24:32;70.25;52.00;35.00
55304;PMS7003;65692;51.378;19.824;2022-12-11T00:35:20;67.00;48.25;33.75
55304;PMS7003;65692;51.378;19.824;2022-12-11T00:37:46;69.25;50.75;35.50
55304;PMS7003;65692;51.378;19.824;2022-12-11T00:40:13;65.75;49.25;32.00
55304;PMS7003;65692;51.378;19.824;2022-12-11T00:42:40;59.50;47.25;30.50
55304;PMS7003;65692;51.378;19.824;2022-12-11T00:45:06;54.25;45.25;31.00
55304;PMS7003;65692;51.378;19.824;2022-12-11T00:47:33;54.00;42.50;30.00
55304;PMS7003;65692;51.378;19.824;2022-12-11T00:50:00;52.25;39.00;24.25
55304;PMS7003;65692;51.378;19.824;2022-12-11T00:52:27;56.75;43.25;25.50
55304;PMS7003;65692;51.378;19.824;2022-12-11T00:54:53;45.25;39.50;28.50
55304;PMS7003;65692;51.378;19.824;2022-12-11T00:57:20;43.50;36.50;24.25
55304;PMS7003;65692;51.378;19.824;2022-12-11T00:59:47;53.75;38.00;26.00
55304;PMS7003;65692;51.378;19.824;2022-12-11T01:02:13;48.00;37.50;26.00
55304;PMS7003;65692;51.378;19.824;2022-12-11T01:07:30;63.75;44.50;26.50
55304;PMS7003;65692;51.378;19.824;2022-12-11T01:09:57;45.00;33.50;24.50
55304;PMS7003;65692;51.378;19.824;2022-12-11T01:12:42;44.50;33.00;20.75
55304;PMS7003;65692;51.378;19.824;2022-12-11T01:15:08;54.75;38.50;25.00
55304;PMS7003;65692;51.378;19.824;2022-12-11T01:17:37;41.50;32.00;24.75
55304;PMS7003;65692;51.378;19.824;2022-12-11T01:20:04;45.25;35.50;25.50
55304;PMS7003;65692;51.378;19.824;2022-12-11T01:22:31;49.25;42.25;26.75
55304;PMS7003;65692;51.378;19.824;2022-12-11T01:24:57;53.00;44.50;32.00
55304;PMS7003;65692;51.378;19.824;2022-12-11T01:27:24;57.00;39.50;29.00
55304;PMS7003;65692;51.378;19.824;2022-12-11T01:29:51;53.50;45.25;29.50
55304;PMS7003;65692;51.378;19.824;2022-12-11T01:32:17;49.00;41.75;27.00
55304;PMS7003;65692;51.378;19.824;2022-12-11T01:34:44;58.25;45.50;30.50
55304;PMS7003;65692;51.378;19.824;2022-12-11T01:37:11;53.00;38.75;25.00
55304;PMS7003;65692;51.378;19.824;2022-12-11T01:39:37;51.00;45.50;30.00
55304;PMS7003;65692;51.378;19.824;2022-12-11T01:42:04;52.75;45.00;30.25
55304;PMS7003;65692;51.378;19.824;2022-12-11T01:47:02;55.25;49.25;33.25
55304;PMS7003;65692;51.378;19.824;2022-12-11T01:49:29;72.75;47.50;30.75
55304;PMS7003;65692;51.378;19.824;2022-12-11T01:51:58;56.25;41.50;28.50
55304;PMS7003;65692;51.378;19.824;2022-12-11T01:54:26;67.75;51.25;33.25
55304;PMS7003;65692;51.378;19.824;2022-12-11T01:56:55;70.00;51.00;31.50
55304;PMS7003;65692;51.378;19.824;2022-12-11T01:59:24;57.25;45.75;31.50
55304;PMS7003;65692;51.378;19.824;2022-12-11T02:01:59;47.50;39.00;25.00
55304;PMS7003;65692;51.378;19.824;2022-12-11T02:04:28;68.50;49.00;32.75
55304;PMS7003;65692;51.378;19.824;2022-12-11T02:06:56;62.00;42.75;28.00
55304;PMS7003;65692;51.378;19.824;2022-12-11T02:09:26;61.75;48.00;32.00
55304;PMS7003;65692;51.378;19.824;2022-12-11T02:12:07;64.00;48.75;33.00
55304;PMS7003;65692;51.378;19.824;2022-12-11T02:17:18;60.25;49.50;33.00
55304;PMS7003;65692;51.378;19.824;2022-12-11T02:25:19;51.25;40.75;27.50
55304;PMS7003;65692;51.378;19.824;2022-12-11T02:28:12;59.50;41.00;29.00
55304;PMS7003;65692;51.378;19.824;2022-12-11T02:30:42;47.00;39.75;27.50
55304;PMS7003;65692;51.378;19.824;2022-12-11T02:33:12;49.50;39.25;30.00
55304;PMS7003;65692;51.378;19.824;2022-12-11T02:35:41;46.25;39.00;28.50
55304;PMS7003;65692;51.378;19.824;2022-12-11T02:38:12;53.25;40.50;24.25
55304;PMS7003;65692;51.378;19.824;2022-12-11T02:40:40;47.00;34.50;25.00
55304;PMS7003;65692;51.378;19.824;2022-12-11T02:43:09;47.25;39.75;24.50
55304;PMS7003;65692;51.378;19.824;2022-12-11T02:51:15;49.25;37.50;26.25
55304;PMS7003;65692;51.378;19.824;2022-12-11T02:53:42;55.25;44.00;30.75
55304;PMS7003;65692;51.378;19.824;2022-12-11T02:56:18;55.75;37.25;26.00
55304;PMS7003;65692;51.378;19.824;2022-12-11T02:58:53;55.00;44.75;30.25
55304;PMS7003;65692;51.378;19.824;2022-12-11T03:01:24;55.50;43.00;30.00
55304;PMS7003;65692;51.378;19.824;2022-12-11T03:03:52;54.75;42.75;28.50
55304;PMS7003;65692;51.378;19.824;2022-12-11T03:06:20;53.00;40.75;26.50
55304;PMS7003;65692;51.378;19.824;2022-12-11T03:08:50;44.25;37.00;27.00
55304;PMS7003;65692;51.378;19.824;2022-12-11T03:11:17;46.25;36.75;26.25
55304;PMS7003;65692;51.378;19.824;2022-12-11T03:13:43;43.25;36.00;27.00
55304;PMS7003;65692;51.378;19.824;2022-12-11T03:16:28;50.50;37.25;27.50
55304;PMS7003;65692;51.378;19.824;2022-12-11T03:21:48;42.50;40.50;27.75
55304;PMS7003;65692;51.378;19.824;2022-12-11T03:24:25;49.00;31.75;20.50
55304;PMS7003;65692;51.378;19.824;2022-12-11T03:26:55;44.75;39.00;23.00
55304;PMS7003;65692;51.378;19.824;2022-12-11T03:29:30;44.75;36.25;22.00
55304;PMS7003;65692;51.378;19.824;2022-12-11T03:32:04;56.75;42.00;29.00
55304;PMS7003;65692;51.378;19.824;2022-12-11T03:34:37;49.75;43.75;27.75
55304;PMS7003;65692;51.378;19.824;2022-12-11T03:37:07;63.00;45.25;31.00
55304;PMS7003;65692;51.378;19.824;2022-12-11T03:39:38;48.50;34.25;23.50
55304;PMS7003;65692;51.378;19.824;2022-12-11T03:42:07;49.75;41.25;28.75
55304;PMS7003;65692;51.378;19.824;2022-12-11T03:44:35;38.75;33.50;24.75
55304;PMS7003;65692;51.378;19.824;2022-12-11T03:47:02;52.75;41.00;28.75
55304;PMS7003;65692;51.378;19.824;2022-12-11T03:49:33;46.00;38.75;28.25
55304;PMS7003;65692;51.378;19.824;2022-12-11T03:52:03;46.75;38.50;27.25
55304;PMS7003;65692;51.378;19.824;2022-12-11T03:54:34;66.25;46.50;28.25
55304;PMS7003;65692;51.378;19.824;2022-12-11T03:57:01;57.00;41.25;28.25
55304;PMS7003;65692;51.378;19.824;2022-12-11T03:59:29;51.75;43.75;30.75
55304;PMS7003;65692;51.378;19.824;2022-12-11T04:01:56;34.00;30.50;21.25
55304;PMS7003;65692;51.378;19.824;2022-12-11T04:04:23;44.25;33.50;24.00
55304;PMS7003;65692;51.378;19.824;2022-12-11T04:06:53;42.50;38.75;26.00
55304;PMS7003;65692;51.378;19.824;2022-12-11T04:09:20;38.75;30.25;21.50
55304;PMS7003;65692;51.378;19.824;2022-12-11T04:11:48;47.00;37.50;25.00
55304;PMS7003;65692;51.378;19.824;2022-12-11T04:14:14;36.00;30.50;21.00
55304;PMS7003;65692;51.378;19.824;2022-12-11T04:17:00;42.75;31.50;22.00
55304;PMS7003;65692;51.378;19.824;2022-12-11T04:19:26;34.25;25.50;19.50
55304;PMS7003;65692;51.378;19.824;2022-12-11T04:22:12;42.75;34.00;22.00
55304;PMS7003;65692;51.378;19.824;2022-12-11T04:24:58;42.75;28.75;22.25
55304;PMS7003;65692;51.378;19.824;2022-12-11T04:27:28;28.50;25.75;18.50
55304;PMS7003;65692;51.378;19.824;2022-12-11T04:30:14;44.50;30.00;19.00
55304;PMS7003;65692;51.378;19.824;2022-12-11T04:32:42;36.25;27.75;21.00
55304;PMS7003;65692;51.378;19.824;2022-12-11T04:35:08;43.00;31.00;23.00
55304;PMS7003;65692;51.378;19.824;2022-12-11T04:37:36;37.75;30.50;21.25
55304;PMS7003;65692;51.378;19.824;2022-12-11T04:40:03;28.50;27.00;18.75
55304;PMS7003;65692;51.378;19.824;2022-12-11T04:42:31;47.25;32.00;20.75
55304;PMS7003;65692;51.378;19.824;2022-12-11T04:44:57;41.25;34.50;22.50
55304;PMS7003;65692;51.378;19.824;2022-12-11T05:01:22;34.25;23.00;15.75
55304;PMS7003;65692;51.378;19.824;2022-12-11T05:12:08;46.50;33.50;24.00
55304;PMS7003;65692;51.378;19.824;2022-12-11T05:14:34;37.50;24.25;17.50
55304;PMS7003;65692;51.378;19.824;2022-12-11T05:17:01;30.25;29.50;22.75
55304;PMS7003;65692;51.378;19.824;2022-12-11T05:19:28;27.75;24.00;15.00
55304;PMS7003;65692;51.378;19.824;2022-12-11T05:21:55;35.25;27.00;18.25
55304;PMS7003;65692;51.378;19.824;2022-12-11T05:27:02;40.75;30.50;21.00
55304;PMS7003;65692;51.378;19.824;2022-12-11T05:29:29;32.00;28.00;20.50
55304;PMS7003;65692;51.378;19.824;2022-12-11T05:31:55;31.25;26.25;19.00
55304;PMS7003;65692;51.378;19.824;2022-12-11T05:34:22;33.00;23.00;16.00
55304;PMS7003;65692;51.378;19.824;2022-12-11T05:36:49;32.50;19.25;13.75
55304;PMS7003;65692;51.378;19.824;2022-12-11T05:39:16;38.75;30.00;20.50
55304;PMS7003;65692;51.378;19.824;2022-12-11T05:41:42;44.00;31.50;26.00
55304;PMS7003;65692;51.378;19.824;2022-12-11T05:44:12;42.00;27.75;15.75
55304;PMS7003;65692;51.378;19.824;2022-12-11T05:46:39;25.50;25.50;17.00
55304;PMS7003;65692;51.378;19.824;2022-12-11T05:49:06;38.00;30.25;19.25
55304;PMS7003;65692;51.378;19.824;2022-12-11T05:51:33;36.25;27.00;18.00
55304;PMS7003;65692;51.378;19.824;2022-12-11T05:54:00;40.75;24.00;18.00
55304;PMS7003;65692;51.378;19.824;2022-12-11T05:56:28;35.00;22.50;17.00
55304;PMS7003;65692;51.378;19.824;2022-12-11T05:58:55;38.00;28.25;18.50
55304;PMS7003;65692;51.378;19.824;2022-12-11T06:01:40;35.50;26.25;18.50
55304;PMS7003;65692;51.378;19.824;2022-12-11T06:04:09;33.00;24.50;16.75
55304;PMS7003;65692;51.378;19.824;2022-12-11T06:06:36;25.00;22.00;15.75
55304;PMS7003;65692;51.378;19.824;2022-12-11T06:09:03;30.25;25.50;19.00
55304;PMS7003;65692;51.378;19.824;2022-12-11T06:11:31;21.50;20.50;10.00
55304;PMS7003;65692;51.378;19.824;2022-12-11T06:13:58;30.75;23.50;16.00
55304;PMS7003;65692;51.378;19.824;2022-12-11T06:16:25;29.00;20.00;12.75
55304;PMS7003;65692;51.378;19.824;2022-12-11T06:18:52;38.00;27.25;20.75
55304;PMS7003;65692;51.378;19.824;2022-12-11T06:21:28;31.50;23.00;16.50
55304;PMS7003;65692;51.378;19.824;2022-12-11T06:23:55;27.25;23.00;17.50
55304;PMS7003;65692;51.378;19.824;2022-12-11T06:26:23;21.00;19.25;15.75
55304;PMS7003;65692;51.378;19.824;2022-12-11T06:28:50;35.50;23.50;17.25
55304;PMS7003;65692;51.378;19.824;2022-12-11T06:31:17;26.50;21.75;16.00
55304;PMS7003;65692;51.378;19.824;2022-12-11T06:33:44;25.00;20.75;18.00
55304;PMS7003;65692;51.378;19.824;2022-12-11T06:36:16;35.00;26.50;15.75
55304;PMS7003;65692;51.378;19.824;2022-12-11T06:41:24;41.00;30.50;22.50
55304;PMS7003;65692;51.378;19.824;2022-12-11T06:43:51;28.75;22.25;14.50
55304;PMS7003;65692;51.378;19.824;2022-12-11T06:46:18;24.50;19.50;14.50
55304;PMS7003;65692;51.378;19.824;2022-12-11T06:48:45;32.50;26.75;19.25
55304;PMS7003;65692;51.378;19.824;2022-12-11T06:51:13;32.50;28.00;21.50
55304;PMS7003;65692;51.378;19.824;2022-12-11T06:53:40;26.50;19.50;15.00
55304;PMS7003;65692;51.378;19.824;2022-12-11T06:56:08;25.00;17.50;12.00
55304;PMS7003;65692;51.378;19.824;2022-12-11T06:58:35;32.50;27.50;19.00
55304;PMS7003;65692;51.378;19.824;2022-12-11T07:01:03;40.25;30.75;21.00
55304;PMS7003;65692;51.378;19.824;2022-12-11T07:03:30;36.50;32.75;24.75
55304;PMS7003;65692;51.378;19.824;2022-12-11T07:06:00;28.75;27.75;17.25
55304;PMS7003;65692;51.378;19.824;2022-12-11T07:08:28;23.00;18.75;14.00
55304;PMS7003;65692;51.378;19.824;2022-12-11T07:11:00;27.50;16.50;13.50
55304;PMS7003;65692;51.378;19.824;2022-12-11T07:16:03;32.50;25.50;18.75
55304;PMS7003;65692;51.378;19.824;2022-12-11T07:18:31;27.75;21.00;15.00
55304;PMS7003;65692;51.378;19.824;2022-12-11T07:20:58;32.75;21.50;16.00
55304;PMS7003;65692;51.378;19.824;2022-12-11T07:28:42;43.25;31.75;21.25
55304;PMS7003;65692;51.378;19.824;2022-12-11T07:39:06;21.00;14.50;10.00
55304;PMS7003;65692;51.378;19.824;2022-12-11T07:41:34;28.00;22.25;15.75
55304;PMS7003;65692;51.378;19.824;2022-12-11T07:44:01;23.50;21.00;17.00
55304;PMS7003;65692;51.378;19.824;2022-12-11T07:46:29;29.50;18.25;15.00
55304;PMS7003;65692;51.378;19.824;2022-12-11T07:48:56;16.00;12.75;11.50
55304;PMS7003;65692;51.378;19.824;2022-12-11T07:51:26;20.00;16.00;12.50
55304;PMS7003;65692;51.378;19.824;2022-12-11T07:53:57;27.25;20.00;15.25
55304;PMS7003;65692;51.378;19.824;2022-12-11T07:56:24;23.25;20.00;16.25
55304;PMS7003;65692;51.378;19.824;2022-12-11T07:58:51;16.50;14.25;11.75
55304;PMS7003;65692;51.378;19.824;2022-12-11T08:01:22;28.50;23.50;18.00
55304;PMS7003;65692;51.378;19.824;2022-12-11T08:03:51;22.25;21.00;14.00
55304;PMS7003;65692;51.378;19.824;2022-12-11T08:06:24;25.75;24.75;15.75
55304;PMS7003;65692;51.378;19.824;2022-12-11T08:08:51;32.00;22.50;15.75
55304;PMS7003;65692;51.378;19.824;2022-12-11T08:13:59;52.00;38.00;27.50
55304;PMS7003;65692;51.378;19.824;2022-12-11T08:16:27;39.25;34.25;26.50
55304;PMS7003;65692;51.378;19.824;2022-12-11T08:21:41;22.25;21.75;16.50
55304;PMS7003;65692;51.378;19.824;2022-12-11T08:24:07;34.00;22.75;14.75
55304;PMS7003;65692;51.378;19.824;2022-12-11T08:26:34;35.00;29.50;24.50
55304;PMS7003;65692;51.378;19.824;2022-12-11T08:29:01;36.25;29.00;18.50
55304;PMS7003;65692;51.378;19.824;2022-12-11T08:31:28;46.75;29.00;21.50
55304;PMS7003;65692;51.378;19.824;2022-12-11T08:33:56;23.00;22.25;18.25
55304;PMS7003;65692;51.378;19.824;2022-12-11T08:36:24;41.75;30.25;22.00
55304;PMS7003;65692;51.378;19.824;2022-12-11T08:38:50;39.00;30.75;24.75
55304;PMS7003;65692;51.378;19.824;2022-12-11T08:41:23;37.00;25.50;21.00
55304;PMS7003;65692;51.378;19.824;2022-12-11T08:46:42;30.50;24.50;19.00
55304;PMS7003;65692;51.378;19.824;2022-12-11T08:49:08;27.25;21.25;16.00
55304;PMS7003;65692;51.378;19.824;2022-12-11T08:51:35;38.50;29.00;19.50
55304;PMS7003;65692;51.378;19.824;2022-12-11T08:54:02;38.25;29.75;21.25
55304;PMS7003;65692;51.378;19.824;2022-12-11T08:56:29;23.50;23.00;18.00
55304;PMS7003;65692;51.378;19.824;2022-12-11T08:58:57;32.00;26.75;21.50
55304;PMS7003;65692;51.378;19.824;2022-12-11T09:01:25;34.50;26.25;20.00
55304;PMS7003;65692;51.378;19.824;2022-12-11T09:03:52;42.50;36.25;27.00
55304;PMS7003;65692;51.378;19.824;2022-12-11T09:06:20;31.00;24.00;18.00
55304;PMS7003;65692;51.378;19.824;2022-12-11T09:08:47;45.25;31.50;24.75
55304;PMS7003;65692;51.378;19.824;2022-12-11T09:11:20;48.00;38.00;30.00
55304;PMS7003;65692;51.378;19.824;2022-12-11T09:13:46;36.25;34.50;25.00
55304;PMS7003;65692;51.378;19.824;2022-12-11T09:16:14;56.75;44.25;32.00
55304;PMS7003;65692;51.378;19.824;2022-12-11T09:18:41;39.50;35.50;26.75
55304;PMS7003;65692;51.378;19.824;2022-12-11T09:21:09;45.25;37.50;30.00
55304;PMS7003;65692;51.378;19.824;2022-12-11T09:23:36;48.25;44.50;33.00
55304;PMS7003;65692;51.378;19.824;2022-12-11T09:26:03;51.00;40.50;30.00
55304;PMS7003;65692;51.378;19.824;2022-12-11T09:28:31;41.00;33.75;26.00
55304;PMS7003;65692;51.378;19.824;2022-12-11T09:30:58;37.00;30.50;22.50
55304;PMS7003;65692;51.378;19.824;2022-12-11T09:33:25;29.00;24.50;18.75
55304;PMS7003;65692;51.378;19.824;2022-12-11T09:36:01;36.50;28.75;21.00
55304;PMS7003;65692;51.378;19.824;2022-12-11T09:38:28;25.75;22.75;16.00
55304;PMS7003;65692;51.378;19.824;2022-12-11T09:40:55;26.25;20.25;12.75
55304;PMS7003;65692;51.378;19.824;2022-12-11T09:43:41;46.25;40.25;26.00
55304;PMS7003;65692;51.378;19.824;2022-12-11T09:46:10;54.00;35.00;22.00
55304;PMS7003;65692;51.378;19.824;2022-12-11T09:48:39;35.50;25.25;20.00
55304;PMS7003;65692;51.378;19.824;2022-12-11T09:51:30;53.75;45.00;32.00
55304;PMS7003;65692;51.378;19.824;2022-12-11T09:53:53;49.00;42.00;30.00
55304;PMS7003;65692;51.378;19.824;2022-12-11T09:56:27;33.50;29.00;22.00
55304;PMS7003;65692;51.378;19.824;2022-12-11T10:01:48;37.75;32.75;23.00
55304;PMS7003;65692;51.378;19.824;2022-12-11T10:09:18;65.75;50.50;36.00
55304;PMS7003;65692;51.378;19.824;2022-12-11T10:11:55;69.75;57.50;39.25
55304;PMS7003;65692;51.378;19.824;2022-12-11T10:17:05;49.50;39.00;23.50
55304;PMS7003;65692;51.378;19.824;2022-12-11T10:19:35;55.25;44.25;31.00
55304;PMS7003;65692;51.378;19.824;2022-12-11T10:22:02;76.25;60.00;39.50
55304;PMS7003;65692;51.378;19.824;2022-12-11T10:24:39;35.50;26.25;20.50
55304;PMS7003;65692;51.378;19.824;2022-12-11T10:27:27;52.00;48.00;33.00
55304;PMS7003;65692;51.378;19.824;2022-12-11T10:30:43;40.75;22.25;8.00
55304;PMS7003;65692;51.378;19.824;2022-12-11T10:32:51;53.50;46.25;33.00
55304;PMS7003;65692;51.378;19.824;2022-12-11T10:38:09;68.50;58.25;40.00
55304;PMS7003;65692;51.378;19.824;2022-12-11T10:40:37;44.50;36.50;28.25
55304;PMS7003;65692;51.378;19.824;2022-12-11T10:43:05;50.25;37.25;27.25
55304;PMS7003;65692;51.378;19.824;2022-12-11T10:45:31;63.25;50.50;36.00
55304;PMS7003;65692;51.378;19.824;2022-12-11T10:48:01;60.75;47.00;33.25
55304;PMS7003;65692;51.378;19.824;2022-12-11T10:50:28;43.25;30.25;21.00
55304;PMS7003;65692;51.378;19.824;2022-12-11T10:52:55;71.25;59.00;38.50
55304;PMS7003;65692;51.378;19.824;2022-12-11T10:55:42;65.50;52.00;34.50
55304;PMS7003;65692;51.378;19.824;2022-12-11T10:58:17;52.75;45.00;30.75
55304;PMS7003;65692;51.378;19.824;2022-12-11T11:00:44;99.25;72.50;48.00
55304;PMS7003;65692;51.378;19.824;2022-12-11T11:03:24;52.50;41.75;28.50
55304;PMS7003;65692;51.378;19.824;2022-12-11T11:06:05;62.75;47.00;33.50
55304;PMS7003;65692;51.378;19.824;2022-12-11T11:08:39;63.25;48.50;34.00
55304;PMS7003;65692;51.378;19.824;2022-12-11T11:11:12;55.50;45.75;31.00
55304;PMS7003;65692;51.378;19.824;2022-12-11T11:13:45;63.25;47.50;33.00
55304;PMS7003;65692;51.378;19.824;2022-12-11T11:16:12;62.50;46.00;32.00
55304;PMS7003;65692;51.378;19.824;2022-12-11T11:18:39;59.25;48.50;34.00
55304;PMS7003;65692;51.378;19.824;2022-12-11T11:21:06;49.50;39.25;30.00
55304;PMS7003;65692;51.378;19.824;2022-12-11T11:23:41;50.00;37.50;28.50
55304;PMS7003;65692;51.378;19.824;2022-12-11T11:26:13;68.75;52.75;35.00
55304;PMS7003;65692;51.378;19.824;2022-12-11T11:28:41;50.50;43.00;28.75
55304;PMS7003;65692;51.378;19.824;2022-12-11T11:31:13;52.75;41.25;28.50
55304;PMS7003;65692;51.378;19.824;2022-12-11T11:33:59;52.00;40.25;30.00
55304;PMS7003;65692;51.378;19.824;2022-12-11T11:36:29;65.50;47.25;33.00
55304;PMS7003;65692;51.378;19.824;2022-12-11T11:44:05;67.00;45.75;31.00
55304;PMS7003;65692;51.378;19.824;2022-12-11T11:46:33;71.25;54.00;36.75
55304;PMS7003;65692;51.378;19.824;2022-12-11T11:49:06;72.25;52.50;35.00
55304;PMS7003;65692;51.378;19.824;2022-12-11T11:51:39;53.25;44.25;33.00
55304;PMS7003;65692;51.378;19.824;2022-12-11T11:54:10;65.00;45.25;33.00
55304;PMS7003;65692;51.378;19.824;2022-12-11T11:56:40;85.00;63.75;43.00
55304;PMS7003;65692;51.378;19.824;2022-12-11T11:59:12;64.75;51.00;35.00
55304;PMS7003;65692;51.378;19.824;2022-12-11T12:01:41;61.50;50.00;34.25
55304;PMS7003;65692;51.378;19.824;2022-12-11T12:04:08;57.75;44.50;32.00
55304;PMS7003;65692;51.378;19.824;2022-12-11T12:07:18;72.75;54.00;36.25
55304;PMS7003;65692;51.378;19.824;2022-12-11T12:11:53;98.75;73.75;46.00
55304;PMS7003;65692;51.378;19.824;2022-12-11T12:20:03;48.75;39.25;27.50
55304;PMS7003;65692;51.378;19.824;2022-12-11T12:22:38;51.75;39.50;28.00
55304;PMS7003;65692;51.378;19.824;2022-12-11T12:30:17;43.75;32.75;23.50
55304;PMS7003;65692;51.378;19.824;2022-12-11T12:35:34;42.00;31.50;23.50
55304;PMS7003;65692;51.378;19.824;2022-12-11T12:48:15;46.50;37.25;24.75
55304;PMS7003;65692;51.378;19.824;2022-12-11T12:50:43;44.50;36.25;29.50
55304;PMS7003;65692;51.378;19.824;2022-12-11T12:53:18;49.75;41.50;29.00
55304;PMS7003;65692;51.378;19.824;2022-12-11T12:55:46;54.75;47.50;33.50
55304;PMS7003;65692;51.378;19.824;2022-12-11T13:00:52;69.50;52.00;36.00
55304;PMS7003;65692;51.378;19.824;2022-12-11T13:03:20;53.25;41.75;30.00
55304;PMS7003;65692;51.378;19.824;2022-12-11T13:06:01;42.75;35.75;27.00
55304;PMS7003;65692;51.378;19.824;2022-12-11T13:08:30;48.25;37.50;27.75
55304;PMS7003;65692;51.378;19.824;2022-12-11T13:11:04;48.00;45.00;31.00
55304;PMS7003;65692;51.378;19.824;2022-12-11T13:16:06;57.50;44.00;30.50
55304;PMS7003;65692;51.378;19.824;2022-12-11T13:18:34;65.25;50.00;33.00
55304;PMS7003;65692;51.378;19.824;2022-12-11T13:21:02;59.50;48.25;35.00
55304;PMS7003;65692;51.378;19.824;2022-12-11T13:23:30;49.00;40.00;29.00
55304;PMS7003;65692;51.378;19.824;2022-12-11T13:25:58;36.50;31.50;23.50
55304;PMS7003;65692;51.378;19.824;2022-12-11T13:33:49;18.50;7.00;0.00
55304;PMS7003;65692;51.378;19.824;2022-12-11T13:38:50;46.25;34.00;20.25
55304;PMS7003;65692;51.378;19.824;2022-12-11T13:41:18;52.50;42.25;24.75
55304;PMS7003;65692;51.378;19.824;2022-12-11T13:43:46;66.00;52.00;33.75
55304;PMS7003;65692;51.378;19.824;2022-12-11T13:46:14;57.00;44.50;28.00
55304;PMS7003;65692;51.378;19.824;2022-12-11T13:48:45;42.75;33.00;26.25
55304;PMS7003;65692;51.378;19.824;2022-12-11T13:51:17;46.75;35.25;22.00
55304;PMS7003;65692;51.378;19.824;2022-12-11T13:53:44;33.00;28.50;18.75
55304;PMS7003;65692;51.378;19.824;2022-12-11T13:56:17;45.75;37.00;27.75
55304;PMS7003;65692;51.378;19.824;2022-12-11T13:58:45;61.75;49.00;34.00
55304;PMS7003;65692;51.378;19.824;2022-12-11T14:06:14;54.50;41.50;28.00
55304;PMS7003;65692;51.378;19.824;2022-12-11T14:08:44;61.75;45.50;31.25
55304;PMS7003;65692;51.378;19.824;2022-12-11T14:11:20;64.25;43.00;30.00
55304;PMS7003;65692;51.378;19.824;2022-12-11T14:13:47;51.25;42.75;28.00
55304;PMS7003;65692;51.378;19.824;2022-12-11T21:18:46;45.00;34.50;23.00
55304;PMS7003;65692;51.378;19.824;2022-12-11T21:21:13;60.25;43.75;30.75
55304;PMS7003;65692;51.378;19.824;2022-12-11T21:23:41;57.75;45.50;31.50
55304;PMS7003;65692;51.378;19.824;2022-12-11T21:26:08;66.50;50.75;34.50
55304;PMS7003;65692;51.378;19.824;2022-12-11T21:28:35;67.00;49.75;30.50
55304;PMS7003;65692;51.378;19.824;2022-12-11T21:31:03;66.50;47.75;32.50
55304;PMS7003;65692;51.378;19.824;2022-12-11T21:41:31;60.00;48.25;34.00
55304;PMS7003;65692;51.378;19.824;2022-12-11T21:43:58;66.00;52.50;34.50
55304;PMS7003;65692;51.378;19.824;2022-12-11T21:46:44;54.25;43.25;30.25
55304;PMS7003;65692;51.378;19.824;2022-12-11T21:49:11;48.25;38.00;26.00
55304;PMS7003;65692;51.378;19.824;2022-12-11T21:51:38;77.00;54.25;34.25
55304;PMS7003;65692;51.378;19.824;2022-12-11T21:54:12;41.00;33.50;15.50
55304;PMS7003;65692;51.378;19.824;2022-12-11T21:56:39;57.25;45.75;33.00
55304;PMS7003;65692;51.378;19.824;2022-12-11T21:59:06;63.00;48.75;31.50
55304;PMS7003;65692;51.378;19.824;2022-12-11T22:01:37;67.25;47.50;32.50
55304;PMS7003;65692;51.378;19.824;2022-12-11T22:04:04;55.75;39.00;29.75
55304;PMS7003;65692;51.378;19.824;2022-12-11T22:06:30;51.25;42.25;30.00
55304;PMS7003;65692;51.378;19.824;2022-12-11T22:08:57;53.25;44.00;30.00
55304;PMS7003;65692;51.378;19.824;2022-12-11T22:11:25;49.00;41.50;30.00
55304;PMS7003;65692;51.378;19.824;2022-12-11T22:13:52;63.75;46.75;31.25
55304;PMS7003;65692;51.378;19.824;2022-12-11T22:16:19;56.00;43.50;28.00
55304;PMS7003;65692;51.378;19.824;2022-12-11T22:18:46;53.75;43.00;28.50
55304;PMS7003;65692;51.378;19.824;2022-12-11T22:21:12;59.25;45.00;30.25
55304;PMS7003;65692;51.378;19.824;2022-12-11T22:23:40;65.00;44.50;30.00
55304;PMS7003;65692;51.378;19.824;2022-12-11T22:26:07;67.25;50.00;34.00
55304;PMS7003;65692;51.378;19.824;2022-12-11T22:28:34;51.50;45.00;30.00
55304;PMS7003;65692;51.378;19.824;2022-12-11T22:31:00;63.00;47.00;30.25
55304;PMS7003;65692;51.378;19.824;2022-12-11T22:33:27;53.75;46.00;31.75
55304;PMS7003;65692;51.378;19.824;2022-12-11T22:35:54;65.75;44.00;30.00
55304;PMS7003;65692;51.378;19.824;2022-12-11T22:38:20;43.75;36.50;23.75
55304;PMS7003;65692;51.378;19.824;2022-12-11T22:40:47;42.00;33.75;24.00
55304;PMS7003;65692;51.378;19.824;2022-12-11T22:43:13;58.75;42.50;28.00
55304;PMS7003;65692;51.378;19.824;2022-12-11T22:45:40;53.00;42.50;30.00
55304;PMS7003;65692;51.378;19.824;2022-12-11T22:48:07;59.00;44.25;28.50
55304;PMS7003;65692;51.378;19.824;2022-12-11T22:50:34;41.75;36.25;23.50
55304;PMS7003;65692;51.378;19.824;2022-12-11T22:53:01;54.25;42.00;29.00
55304;PMS7003;65692;51.378;19.824;2022-12-11T22:55:28;26.50;23.50;14.50
55304;PMS7003;65692;51.378;19.824;2022-12-11T22:57:55;43.00;30.75;19.50
55304;PMS7003;65692;51.378;19.824;2022-12-11T23:00:21;39.25;30.75;23.00
55304;PMS7003;65692;51.378;19.824;2022-12-11T23:02:48;53.75;39.25;25.75
55304;PMS7003;65692;51.378;19.824;2022-12-11T23:05:15;33.50;25.00;13.50
55304;PMS7003;65692;51.378;19.824;2022-12-11T23:07:42;36.50;32.25;22.50
55304;PMS7003;65692;51.378;19.824;2022-12-11T23:10:08;39.50;38.25;29.00
55304;PMS7003;65692;51.378;19.824;2022-12-11T23:12:35;63.00;46.50;30.00
55304;PMS7003;65692;51.378;19.824;2022-12-11T23:15:02;47.00;38.75;27.75
55304;PMS7003;65692;51.378;19.824;2022-12-11T23:17:28;50.00;36.25;22.75
55304;PMS7003;65692;51.378;19.824;2022-12-11T23:19:55;41.50;30.50;23.50
55304;PMS7003;65692;51.378;19.824;2022-12-11T23:22:21;41.25;34.75;26.50